createdAt,value
2023-02-09T00:00:14.040Z,-0.70
2023-02-09T00:02:18.696Z,-0.69
2023-02-09T00:04:21.738Z,-0.72
2023-02-09T00:06:29.812Z,-0.72
2023-02-09T00:08:33.704Z,-0.71
2023-02-09T00:10:37.078Z,-0.68
2023-02-09T00:12:58.393Z,-0.67
2023-02-09T00:15:01.571Z,-0.64
2023-02-09T00:17:05.760Z,-0.62
2023-02-09T00:19:09.233Z,-0.62
2023-02-09T00:21:13.010Z,-0.65
2023-02-09T00:23:17.578Z,-0.63
2023-02-09T00:25:20.679Z,-0.67
2023-02-09T00:27:23.745Z,-0.67
2023-02-09T00:29:27.628Z,-0.73
2023-02-09T00:31:30.839Z,-0.69
2023-02-09T00:33:34.853Z,-0.79
2023-02-09T00:35:41.552Z,-0.85
2023-02-09T00:37:44.801Z,-0.95
2023-02-09T00:39:49.635Z,-0.97
2023-02-09T00:42:07.841Z,-0.97
2023-02-09T00:44:12.532Z,-0.95
2023-02-09T00:46:15.757Z,-0.93
2023-02-09T00:48:18.981Z,-0.88
2023-02-09T00:50:22.245Z,-0.82
2023-02-09T00:52:25.345Z,-0.87
2023-02-09T00:54:29.797Z,-0.85
2023-02-09T00:56:34.239Z,-0.85
2023-02-09T00:58:37.359Z,-0.83
2023-02-09T01:00:40.446Z,-0.83
2023-02-09T01:02:43.683Z,-0.83
2023-02-09T01:04:46.721Z,-0.85
2023-02-09T01:06:51.883Z,-0.85
2023-02-09T01:08:55.015Z,-0.86
2023-02-09T01:10:58.124Z,-0.87
2023-02-09T01:13:02.583Z,-0.86
2023-02-09T01:15:06.165Z,-0.92
2023-02-09T01:17:09.255Z,-0.98
2023-02-09T01:19:13.499Z,-1.04
2023-02-09T01:21:18.381Z,-1.11
2023-02-09T01:23:21.466Z,-1.25
2023-02-09T01:25:24.786Z,-1.29
2023-02-09T01:27:27.851Z,-1.32
2023-02-09T01:29:32.297Z,-1.31
2023-02-09T01:31:36.926Z,-1.32
2023-02-09T01:33:40.004Z,-1.38
2023-02-09T01:35:43.134Z,-1.40
2023-02-09T01:37:46.345Z,-1.39
2023-02-09T01:39:51.044Z,-1.41
2023-02-09T01:41:54.205Z,-1.35
2023-02-09T01:44:00.021Z,-1.42
2023-02-09T01:46:04.743Z,-1.40
2023-02-09T01:48:10.084Z,-1.38
2023-02-09T01:50:14.296Z,-1.39
2023-02-09T01:52:22.730Z,-1.42
2023-02-09T01:54:28.437Z,-1.42
2023-02-09T01:56:32.268Z,-1.42
2023-02-09T01:58:36.192Z,-1.45
2023-02-09T02:00:39.893Z,-1.51
2023-02-09T02:02:47.524Z,-1.50
2023-02-09T02:04:50.995Z,-1.57
2023-02-09T02:06:56.783Z,-1.65
2023-02-09T02:09:02.360Z,-1.70
2023-02-09T02:11:06.035Z,-1.70
2023-02-09T02:13:09.171Z,-1.66
2023-02-09T02:15:12.645Z,-1.62
2023-02-09T02:17:24.177Z,-1.56
2023-02-09T02:20:04.976Z,-1.60
2023-02-09T02:22:43.475Z,-1.64
2023-02-09T02:25:12.360Z,-1.67
2023-02-09T02:27:30.676Z,-1.66
2023-02-09T02:30:04.693Z,-1.81
2023-02-09T02:32:14.930Z,-1.95
2023-02-09T02:34:21.864Z,-1.99
2023-02-09T02:36:29.260Z,-2.01
2023-02-09T02:38:36.000Z,-2.09
2023-02-09T02:40:44.531Z,-2.10
2023-02-09T02:42:52.849Z,-2.09
2023-02-09T02:45:02.792Z,-2.10
2023-02-09T02:47:08.636Z,-2.10
2023-02-09T02:49:18.188Z,-2.11
2023-02-09T02:51:26.350Z,-2.12
2023-02-09T02:53:31.023Z,-2.16
2023-02-09T02:55:35.082Z,-2.12
2023-02-09T02:57:39.076Z,-2.16
2023-02-09T02:59:45.677Z,-2.21
2023-02-09T03:01:51.827Z,-2.21
2023-02-09T03:03:55.510Z,-2.23
2023-02-09T03:06:00.667Z,-2.23
2023-02-09T03:08:03.856Z,-2.22
2023-02-09T03:10:29.291Z,-2.21
2023-02-09T03:12:43.145Z,-2.21
2023-02-09T03:20:18.989Z,-2.23
2023-02-09T03:22:30.069Z,-2.25
2023-02-09T03:24:37.907Z,-2.26
2023-02-09T03:26:44.026Z,-2.29
2023-02-09T03:28:47.896Z,-2.31
2023-02-09T03:30:51.323Z,-2.34
2023-02-09T03:32:56.279Z,-2.34
2023-02-09T03:34:59.447Z,-2.39
2023-02-09T03:37:02.752Z,-2.41
2023-02-09T03:39:07.298Z,-2.41
2023-02-09T03:41:10.546Z,-2.41
2023-02-09T03:43:13.717Z,-2.46
2023-02-09T03:45:16.936Z,-2.44
2023-02-09T03:47:20.533Z,-2.43
2023-02-09T03:49:23.877Z,-2.44
2023-02-09T03:51:26.947Z,-2.44
2023-02-09T03:53:30.082Z,-2.42
2023-02-09T03:55:34.766Z,-2.42
2023-02-09T03:57:39.196Z,-2.47
2023-02-09T03:59:42.296Z,-2.53
2023-02-09T04:01:45.446Z,-2.58
2023-02-09T04:03:48.844Z,-2.60
2023-02-09T04:05:51.931Z,-2.63
2023-02-09T04:07:55.304Z,-2.76
2023-02-09T04:09:58.284Z,-2.89
2023-02-09T04:12:03.003Z,-2.93
2023-02-09T04:14:06.812Z,-2.95
2023-02-09T04:16:10.278Z,-3.09
2023-02-09T04:18:13.433Z,-3.06
2023-02-09T04:20:16.645Z,-2.99
2023-02-09T04:22:19.765Z,-2.92
2023-02-09T04:24:23.076Z,-2.85
2023-02-09T04:26:26.278Z,-2.80
2023-02-09T04:28:30.947Z,-2.90
2023-02-09T04:30:34.072Z,-2.97
2023-02-09T04:32:37.267Z,-2.99
2023-02-09T04:34:40.283Z,-3.01
2023-02-09T04:36:43.442Z,-3.04
2023-02-09T04:38:46.636Z,-3.07
2023-02-09T04:40:50.523Z,-3.11
2023-02-09T04:42:53.562Z,-3.12
2023-02-09T04:44:58.055Z,-3.09
2023-02-09T04:47:01.169Z,-3.10
2023-02-09T04:49:04.306Z,-3.08
2023-02-09T04:51:07.469Z,-3.05
2023-02-09T04:53:11.421Z,-3.05
2023-02-09T04:55:14.611Z,-3.03
2023-02-09T04:57:37.386Z,-2.99
2023-02-09T04:59:41.578Z,-2.95
2023-02-09T05:01:46.090Z,-2.93
2023-02-09T05:03:49.224Z,-2.91
2023-02-09T05:05:55.585Z,-2.90
2023-02-09T05:07:58.673Z,-2.93
2023-02-09T05:10:01.732Z,-2.95
2023-02-09T05:12:05.538Z,-2.93
2023-02-09T05:14:08.601Z,-2.96
2023-02-09T05:16:15.823Z,-2.99
2023-02-09T05:18:20.853Z,-3.01
2023-02-09T05:20:23.996Z,-3.02
2023-02-09T05:22:27.156Z,-3.02
2023-02-09T05:24:30.192Z,-3.06
2023-02-09T05:26:33.364Z,-3.07
2023-02-09T05:28:36.499Z,-3.04
2023-02-09T05:30:39.578Z,-3.01
2023-02-09T05:32:42.586Z,-3.04
2023-02-09T05:34:47.070Z,-3.07
2023-02-09T05:36:50.122Z,-3.13
2023-02-09T05:38:53.209Z,-3.13
2023-02-09T05:40:56.396Z,-3.15
2023-02-09T05:42:59.732Z,-3.23
2023-02-09T05:45:02.847Z,-3.29
2023-02-09T05:47:06.081Z,-3.28
2023-02-09T05:49:09.141Z,-3.31
2023-02-09T05:51:13.565Z,-3.31
2023-02-09T05:53:16.551Z,-3.32
2023-02-09T05:55:19.796Z,-3.33
2023-02-09T05:57:22.842Z,-3.28
2023-02-09T05:59:25.967Z,-3.28
2023-02-09T06:01:29.053Z,-3.28
2023-02-09T06:03:32.290Z,-3.27
2023-02-09T06:05:35.572Z,-3.24
2023-02-09T06:07:40.006Z,-3.27
2023-02-09T06:09:43.110Z,-3.28
2023-02-09T06:11:47.038Z,-3.29
2023-02-09T06:13:50.339Z,-3.31
2023-02-09T06:15:53.480Z,-3.32
2023-02-09T06:17:56.537Z,-3.29
2023-02-09T06:19:59.846Z,-3.29
2023-02-09T06:22:02.953Z,-3.29
2023-02-09T06:24:07.714Z,-3.37
2023-02-09T06:26:14.924Z,-3.41
2023-02-09T06:28:18.007Z,-3.44
2023-02-09T06:30:21.367Z,-3.44
2023-02-09T06:32:24.469Z,-3.41
2023-02-09T06:34:27.804Z,-3.41
2023-02-09T06:36:30.878Z,-3.42
2023-02-09T06:38:34.628Z,-3.38
2023-02-09T06:40:39.241Z,-3.38
2023-02-09T06:42:45.184Z,-3.37
2023-02-09T06:44:48.563Z,-3.43
2023-02-09T06:46:51.725Z,-3.42
2023-02-09T06:48:54.917Z,-3.44
2023-02-09T06:50:58.259Z,-3.41
2023-02-09T06:53:01.717Z,-3.40
2023-02-09T06:55:06.338Z,-3.40
2023-02-09T06:57:10.858Z,-3.39
2023-02-09T06:59:13.975Z,-3.36
2023-02-09T07:01:17.681Z,-3.28
2023-02-09T07:03:20.767Z,-3.19
2023-02-09T07:05:24.023Z,-3.18
2023-02-09T07:07:27.239Z,-3.13
2023-02-09T07:09:30.464Z,-3.07
2023-02-09T07:11:33.683Z,-3.01
2023-02-09T07:13:38.831Z,-3.01
2023-02-09T07:15:42.221Z,-2.96
2023-02-09T07:17:45.366Z,-2.87
2023-02-09T07:19:48.530Z,-2.75
2023-02-09T07:21:51.639Z,-2.63
2023-02-09T07:23:54.698Z,-2.51
2023-02-09T07:25:57.768Z,-2.40
2023-02-09T07:28:00.906Z,-2.37
2023-02-09T07:30:06.378Z,-2.27
2023-02-09T07:32:09.645Z,-2.16
2023-02-09T07:34:12.896Z,-1.99
2023-02-09T07:36:19.176Z,-1.83
2023-02-09T07:38:22.350Z,-1.69
2023-02-09T07:40:25.939Z,-1.55
2023-02-09T07:42:29.394Z,-1.48
2023-02-09T07:44:36.689Z,-1.44
2023-02-09T07:46:41.302Z,-1.40
2023-02-09T07:48:44.579Z,-1.24
2023-02-09T07:50:50.972Z,-1.05
2023-02-09T07:52:54.532Z,-0.94
2023-02-09T07:54:57.696Z,-0.93
2023-02-09T07:57:00.958Z,-0.85
2023-02-09T07:59:04.243Z,-0.69
2023-02-09T08:01:09.486Z,-0.56
2023-02-09T08:03:14.827Z,-0.48
2023-02-09T08:05:21.801Z,-0.39
2023-02-09T08:07:24.966Z,-0.28
2023-02-09T08:09:29.300Z,-0.23
2023-02-09T08:11:35.138Z,-0.13
2023-02-09T08:13:40.945Z,-0.06
2023-02-09T08:15:46.082Z,0.01
2023-02-09T08:17:50.427Z,0.09
2023-02-09T08:20:00.163Z,0.18
2023-02-09T08:22:04.301Z,0.26
2023-02-09T08:24:07.885Z,0.31
2023-02-09T08:26:12.845Z,0.36
2023-02-09T08:28:17.237Z,0.49
2023-02-09T08:30:20.777Z,0.58
2023-02-09T08:32:24.033Z,0.69
2023-02-09T08:34:27.184Z,0.78
2023-02-09T08:36:32.597Z,0.89
2023-02-09T08:38:36.280Z,1.03
2023-02-09T08:40:41.555Z,1.19
2023-02-09T08:42:44.911Z,1.32
2023-02-09T08:44:48.105Z,1.26
2023-02-09T08:46:51.322Z,1.26
2023-02-09T08:48:54.882Z,1.29
2023-02-09T08:50:58.024Z,1.28
2023-02-09T08:53:02.988Z,1.29
2023-02-09T08:55:06.856Z,1.42
2023-02-09T08:57:09.890Z,1.40
2023-02-09T08:59:13.466Z,1.48
2023-02-09T09:01:16.768Z,1.65
2023-02-09T09:03:20.480Z,1.87
2023-02-09T09:05:23.579Z,1.98
2023-02-09T09:07:26.776Z,2.09
2023-02-09T09:09:31.359Z,2.20
2023-02-09T09:11:34.597Z,2.29
2023-02-09T09:13:37.719Z,2.40
2023-02-09T09:15:43.107Z,2.52
2023-02-09T09:17:46.260Z,2.66
2023-02-09T09:19:52.454Z,2.77
2023-02-09T09:21:55.668Z,2.89
2023-02-09T09:23:58.716Z,2.99
2023-02-09T09:26:03.638Z,3.12
2023-02-09T09:28:07.264Z,3.25
2023-02-09T09:30:11.516Z,3.33
2023-02-09T09:32:14.790Z,3.40
2023-02-09T09:34:17.956Z,3.54
2023-02-09T09:36:21.035Z,3.60
2023-02-09T09:38:24.082Z,3.60
2023-02-09T09:40:30.278Z,3.61
2023-02-09T09:42:37.834Z,3.68
2023-02-09T09:44:47.150Z,3.79
2023-02-09T09:46:52.699Z,3.94
2023-02-09T09:48:57.152Z,4.04
2023-02-09T09:51:08.360Z,4.17
2023-02-09T09:53:16.206Z,4.27
2023-02-09T09:55:23.277Z,4.26
2023-02-09T09:57:29.663Z,4.27
2023-02-09T09:59:38.639Z,4.38
2023-02-09T10:01:41.834Z,4.46
2023-02-09T10:03:45.171Z,4.53
2023-02-09T10:05:52.705Z,4.56
2023-02-09T10:08:00.206Z,4.62
2023-02-09T10:10:05.247Z,4.68
2023-02-09T10:12:24.288Z,4.74
2023-02-09T10:14:27.553Z,4.75
2023-02-09T10:16:34.570Z,4.78
2023-02-09T10:18:38.352Z,4.77
2023-02-09T10:20:47.244Z,4.87
2023-02-09T10:22:52.991Z,4.95
2023-02-09T10:24:56.143Z,4.90
2023-02-09T10:27:05.583Z,4.87
2023-02-09T10:29:23.799Z,4.98
2023-02-09T10:31:33.171Z,5.01
2023-02-09T10:33:43.301Z,5.10
2023-02-09T10:35:51.070Z,5.10
2023-02-09T10:37:59.599Z,5.02
2023-02-09T10:40:09.567Z,5.07
2023-02-09T10:42:19.187Z,5.01
2023-02-09T10:44:24.333Z,5.02
2023-02-09T10:46:27.492Z,5.07
2023-02-09T10:48:42.700Z,5.05
2023-02-09T10:50:51.122Z,5.09
2023-02-09T10:52:59.664Z,5.14
2023-02-09T10:55:06.267Z,5.13
2023-02-09T10:57:25.709Z,5.19
2023-02-09T10:59:28.932Z,5.29
2023-02-09T11:01:34.254Z,5.31
2023-02-09T11:03:38.543Z,5.38
2023-02-09T11:05:43.088Z,5.34
2023-02-09T11:07:46.208Z,5.26
2023-02-09T11:09:51.789Z,5.26
2023-02-09T11:11:55.068Z,5.33
2023-02-09T11:13:58.331Z,5.43
2023-02-09T11:16:27.662Z,5.45
2023-02-09T11:18:33.871Z,5.42
2023-02-09T11:20:37.677Z,5.46
2023-02-09T11:22:54.880Z,5.52
2023-02-09T11:25:05.293Z,5.48
2023-02-09T11:27:23.607Z,5.51
2023-02-09T11:29:30.472Z,5.46
2023-02-09T11:31:44.438Z,5.57
2023-02-09T11:33:52.404Z,5.56
2023-02-09T11:36:02.844Z,5.49
2023-02-09T11:38:11.012Z,5.45
2023-02-09T11:40:27.242Z,5.40
2023-02-09T11:42:47.846Z,5.43
2023-02-09T11:44:56.579Z,5.45
2023-02-09T11:47:04.534Z,5.54
2023-02-09T11:49:12.985Z,5.46
2023-02-09T11:51:18.622Z,5.44
2023-02-09T11:53:29.512Z,5.54
2023-02-09T11:55:38.655Z,5.59
2023-02-09T11:57:43.291Z,5.60
2023-02-09T11:59:54.809Z,5.65
2023-02-09T12:02:02.758Z,5.59
2023-02-09T12:04:13.406Z,5.63
2023-02-09T12:06:22.871Z,5.58
2023-02-09T12:08:42.841Z,5.57
2023-02-09T12:10:50.077Z,5.59
2023-02-09T12:12:55.640Z,5.64
2023-02-09T12:15:05.503Z,5.70
2023-02-09T12:17:13.235Z,5.76
2023-02-09T12:19:26.867Z,5.74
2023-02-09T12:21:32.421Z,5.78
2023-02-09T12:23:37.933Z,5.78
2023-02-09T12:25:51.699Z,5.75
2023-02-09T12:28:39.066Z,5.78
2023-02-09T12:31:02.726Z,5.76
2023-02-09T12:33:17.366Z,5.76
2023-02-09T12:35:39.107Z,5.80
2023-02-09T12:38:09.024Z,5.77
2023-02-09T12:40:23.725Z,5.73
2023-02-09T12:42:29.180Z,5.77
2023-02-09T12:44:39.562Z,5.81
2023-02-09T12:46:51.838Z,5.88
2023-02-09T12:49:20.825Z,5.94
2023-02-09T12:51:51.571Z,5.95
2023-02-09T12:53:56.079Z,5.92
2023-02-09T12:56:02.165Z,5.94
2023-02-09T12:58:39.621Z,5.93
2023-02-09T13:00:53.905Z,5.92
2023-02-09T13:02:57.694Z,5.96
2023-02-09T13:05:04.008Z,5.99
2023-02-09T13:07:12.139Z,6.02
2023-02-09T13:09:20.753Z,6.08
2023-02-09T13:11:30.435Z,6.09
2023-02-09T13:13:44.820Z,6.03
2023-02-09T13:15:53.242Z,6.06
2023-02-09T13:18:03.836Z,6.10
2023-02-09T13:20:29.676Z,6.13
2023-02-09T13:22:40.215Z,6.09
2023-02-09T13:24:49.419Z,6.04
2023-02-09T13:26:55.633Z,6.07
2023-02-09T13:29:19.816Z,6.03
2023-02-09T13:31:26.348Z,5.91
2023-02-09T13:33:36.858Z,5.66
2023-02-09T13:35:47.218Z,5.63
2023-02-09T13:37:53.461Z,5.60
2023-02-09T13:40:00.780Z,5.66
2023-02-09T13:42:13.191Z,5.67
2023-02-09T13:44:23.996Z,5.69
2023-02-09T13:46:31.423Z,5.72
2023-02-09T13:48:35.868Z,5.75
2023-02-09T13:50:48.089Z,5.82
2023-02-09T13:52:52.067Z,5.85
2023-02-09T13:54:55.476Z,5.88
2023-02-09T13:56:58.547Z,5.93
2023-02-09T13:59:03.293Z,5.95
2023-02-09T14:01:08.110Z,5.94
2023-02-09T14:03:17.771Z,5.98
2023-02-09T14:05:28.601Z,5.99
2023-02-09T14:07:34.752Z,5.98
2023-02-09T14:09:43.711Z,6.01
2023-02-09T14:11:50.701Z,6.01
2023-02-09T14:13:56.355Z,6.01
2023-02-09T14:16:07.323Z,6.03
2023-02-09T14:18:24.290Z,6.05
2023-02-09T14:20:27.576Z,6.08
2023-02-09T14:22:32.356Z,6.12
2023-02-09T14:24:43.674Z,6.12
2023-02-09T14:26:50.476Z,6.14
2023-02-09T14:28:55.825Z,6.18
2023-02-09T14:31:00.593Z,6.22
2023-02-09T14:33:04.308Z,6.19
2023-02-09T14:35:18.729Z,6.13
2023-02-09T14:37:31.685Z,6.13
2023-02-09T14:39:34.913Z,6.12
2023-02-09T14:41:38.216Z,6.13
2023-02-09T14:43:41.487Z,6.14
2023-02-09T14:45:46.546Z,6.13
2023-02-09T14:47:51.289Z,6.13
2023-02-09T14:49:54.510Z,6.07
2023-02-09T14:52:04.052Z,6.01
2023-02-09T14:54:19.219Z,6.04
2023-02-09T14:56:25.360Z,6.00
2023-02-09T14:58:29.757Z,5.97
2023-02-09T15:00:33.569Z,5.96
2023-02-09T15:02:36.716Z,5.94
2023-02-09T15:04:41.960Z,5.95
2023-02-09T15:06:47.215Z,5.96
2023-02-09T15:08:50.285Z,5.96
2023-02-09T15:10:55.336Z,5.96
2023-02-09T15:12:58.968Z,5.96
2023-02-09T15:15:02.869Z,5.97
2023-02-09T15:17:17.271Z,5.96
2023-02-09T15:19:22.534Z,5.95
2023-02-09T15:21:26.946Z,5.95
2023-02-09T15:23:30.016Z,5.95
2023-02-09T15:25:33.120Z,5.94
2023-02-09T15:27:37.624Z,5.93
2023-02-09T15:29:40.662Z,5.93
2023-02-09T15:31:43.922Z,5.93
2023-02-09T15:33:47.171Z,5.90
2023-02-09T15:35:50.321Z,5.90
2023-02-09T15:37:57.263Z,5.89
2023-02-09T15:40:03.935Z,5.89
2023-02-09T15:42:29.553Z,5.89
2023-02-09T15:44:50.254Z,5.86
2023-02-09T15:47:10.728Z,5.83
2023-02-09T15:49:13.873Z,5.80
2023-02-09T15:51:17.501Z,5.77
2023-02-09T15:53:22.206Z,5.74
2023-02-09T15:55:27.145Z,5.72
2023-02-09T15:57:30.256Z,5.70
2023-02-09T15:59:33.424Z,5.67
2023-02-09T16:01:37.125Z,5.64
2023-02-09T16:03:40.264Z,5.56
2023-02-09T16:05:43.631Z,5.52
2023-02-09T16:07:46.899Z,5.48
2023-02-09T16:09:51.601Z,5.45
2023-02-09T16:11:54.923Z,5.42
2023-02-09T16:13:58.127Z,5.40
2023-02-09T16:16:15.997Z,5.36
2023-02-09T16:18:20.050Z,5.34
2023-02-09T16:20:25.628Z,5.31
2023-02-09T16:22:29.505Z,5.30
2023-02-09T16:24:37.794Z,5.25
2023-02-09T16:26:42.262Z,5.25
2023-02-09T16:28:47.043Z,5.23
2023-02-09T16:30:53.088Z,5.17
2023-02-09T16:32:56.765Z,5.13
2023-02-09T16:35:14.511Z,5.10
2023-02-09T16:37:29.955Z,5.05
2023-02-09T16:39:33.151Z,5.00
2023-02-09T16:41:48.215Z,4.94
2023-02-09T16:43:52.736Z,4.87
2023-02-09T16:46:03.425Z,4.79
2023-02-09T16:48:07.852Z,4.71
2023-02-09T16:50:22.756Z,4.64
2023-02-09T16:52:26.923Z,4.57
2023-02-09T16:54:31.049Z,4.49
2023-02-09T16:56:35.930Z,4.40
2023-02-09T16:58:40.644Z,4.30
2023-02-09T17:00:46.047Z,4.22
2023-02-09T17:02:52.381Z,4.20
2023-02-09T17:04:55.734Z,4.20
2023-02-09T17:06:58.861Z,4.16
2023-02-09T17:09:01.897Z,4.15
2023-02-09T17:11:05.696Z,4.08
2023-02-09T17:13:08.877Z,3.93
2023-02-09T17:15:28.586Z,3.82
2023-02-09T17:17:34.421Z,3.75
2023-02-09T17:19:47.415Z,3.63
2023-02-09T17:21:51.250Z,3.56
2023-02-09T17:23:55.278Z,3.49
2023-02-09T17:25:58.839Z,3.46
2023-02-09T17:28:02.154Z,3.40
2023-02-09T17:30:05.821Z,3.32
2023-02-09T17:32:12.676Z,3.27
2023-02-09T17:34:18.005Z,3.23
2023-02-09T17:36:27.079Z,3.19
2023-02-09T17:38:32.582Z,3.18
2023-02-09T17:40:36.574Z,3.14
2023-02-09T17:42:39.650Z,3.10
2023-02-09T17:44:46.342Z,3.07
2023-02-09T17:46:50.232Z,3.00
2023-02-09T17:48:53.414Z,2.93
2023-02-09T17:51:00.238Z,2.83
2023-02-09T17:53:03.399Z,2.79
2023-02-09T17:55:06.998Z,2.76
2023-02-09T17:57:10.430Z,2.73
2023-02-09T17:59:15.003Z,2.64
2023-02-09T18:01:26.436Z,2.60
2023-02-09T18:03:29.899Z,2.46
2023-02-09T18:05:34.619Z,2.44
2023-02-09T18:07:39.179Z,2.49
2023-02-09T18:09:42.385Z,2.49
2023-02-09T18:12:02.067Z,2.47
2023-02-09T18:14:05.330Z,2.42
2023-02-09T18:16:08.613Z,2.30
2023-02-09T18:18:11.897Z,2.31
2023-02-09T18:20:17.577Z,2.27
2023-02-09T18:22:20.839Z,2.22
2023-02-09T18:24:26.982Z,2.23
2023-02-09T18:26:30.140Z,2.20
2023-02-09T18:28:33.322Z,2.17
2023-02-09T18:30:38.478Z,2.17
2023-02-09T18:32:41.797Z,2.09
2023-02-09T18:34:45.239Z,2.03
2023-02-09T18:36:48.378Z,1.89
2023-02-09T18:38:53.468Z,1.85
2023-02-09T18:40:57.894Z,1.83
2023-02-09T18:43:01.125Z,1.80
2023-02-09T18:45:04.796Z,1.82
2023-02-09T18:47:07.997Z,1.83
2023-02-09T18:49:12.909Z,1.80
2023-02-09T18:51:18.372Z,1.78
2023-02-09T18:53:22.230Z,1.75
2023-02-09T18:55:29.236Z,1.73
2023-02-09T18:57:33.824Z,1.68
2023-02-09T18:59:37.571Z,1.66
2023-02-09T19:01:41.020Z,1.65
2023-02-09T19:03:44.244Z,1.63
2023-02-09T19:05:48.542Z,1.61
2023-02-09T19:07:51.844Z,1.65
2023-02-09T19:09:55.769Z,1.64
2023-02-09T19:11:58.976Z,1.66
2023-02-09T19:14:21.168Z,1.66
2023-02-09T19:16:24.425Z,1.54
2023-02-09T19:18:27.855Z,1.52
2023-02-09T19:20:34.191Z,1.50
2023-02-09T19:22:38.702Z,1.44
2023-02-09T19:24:41.878Z,1.34
2023-02-09T19:26:45.192Z,1.26
2023-02-09T19:28:48.585Z,1.20
2023-02-09T19:30:53.209Z,1.17
2023-02-09T19:32:57.783Z,1.20
2023-02-09T19:35:00.932Z,1.19
2023-02-09T19:37:05.489Z,1.18
2023-02-09T19:39:08.668Z,1.17
2023-02-09T19:41:13.559Z,1.18
2023-02-09T19:43:16.761Z,1.19
2023-02-09T19:45:19.908Z,1.21
2023-02-09T19:47:26.071Z,1.20
2023-02-09T19:49:29.765Z,1.18
2023-02-09T19:51:32.991Z,1.15
2023-02-09T19:53:36.307Z,1.18
2023-02-09T19:55:39.503Z,1.11
2023-02-09T19:57:43.361Z,0.98
2023-02-09T19:59:46.761Z,0.93
2023-02-09T20:01:50.144Z,0.83
2023-02-09T20:03:55.204Z,0.85
2023-02-09T20:05:58.419Z,0.80
2023-02-09T20:08:01.606Z,0.78
2023-02-09T20:10:05.454Z,0.77
2023-02-09T20:12:08.900Z,0.77
2023-02-09T20:14:12.602Z,0.75
2023-02-09T20:16:19.985Z,0.75
2023-02-09T20:18:23.468Z,0.73
2023-02-09T20:20:28.031Z,0.70
2023-02-09T20:22:31.332Z,0.69
2023-02-09T20:24:34.614Z,0.66
2023-02-09T20:26:37.818Z,0.69
2023-02-09T20:28:41.337Z,0.66
2023-02-09T20:30:46.477Z,0.65
2023-02-09T20:32:49.840Z,0.62
2023-02-09T20:34:52.993Z,0.60
2023-02-09T20:36:58.884Z,0.61
2023-02-09T20:39:02.000Z,0.59
2023-02-09T20:41:09.148Z,0.59
2023-02-09T20:43:31.274Z,0.57
2023-02-09T20:45:52.566Z,0.50
2023-02-09T20:47:55.787Z,0.51
2023-02-09T20:50:00.183Z,0.48
2023-02-09T20:52:05.217Z,0.46
2023-02-09T20:54:08.535Z,0.43
2023-02-09T20:56:12.385Z,0.39
2023-02-09T20:58:15.830Z,0.39
2023-02-09T21:00:19.504Z,0.38
2023-02-09T21:02:22.716Z,0.36
2023-02-09T21:04:26.705Z,0.32
2023-02-09T21:06:30.063Z,0.29
2023-02-09T21:08:36.799Z,0.28
2023-02-09T21:10:40.366Z,0.25
2023-02-09T21:12:43.653Z,0.23
2023-02-09T21:14:47.777Z,0.18
2023-02-09T21:16:55.383Z,0.17
2023-02-09T21:18:58.919Z,0.16
2023-02-09T21:21:02.002Z,0.13
2023-02-09T21:23:05.238Z,0.12
2023-02-09T21:25:10.562Z,0.10
2023-02-09T21:27:14.239Z,0.09
2023-02-09T21:29:17.626Z,0.03
2023-02-09T21:31:22.594Z,-0.06
2023-02-09T21:33:26.189Z,-0.08
2023-02-09T21:35:29.411Z,-0.07
2023-02-09T21:37:32.919Z,-0.09
2023-02-09T21:39:36.093Z,-0.07
2023-02-09T21:41:58.406Z,-0.09
2023-02-09T21:44:01.783Z,-0.08
2023-02-09T21:46:05.291Z,-0.06
2023-02-09T21:48:08.494Z,-0.09
2023-02-09T21:50:12.963Z,-0.15
2023-02-09T21:52:16.071Z,-0.16
2023-02-09T21:54:32.975Z,-0.21
2023-02-09T21:56:40.844Z,-0.22
2023-02-09T21:58:45.636Z,-0.25
2023-02-09T22:00:57.643Z,-0.29
2023-02-09T22:03:00.734Z,-0.33
2023-02-09T22:05:04.372Z,-0.34
2023-02-09T22:07:07.435Z,-0.33
2023-02-09T22:09:10.556Z,-0.35
2023-02-09T22:11:13.604Z,-0.38
2023-02-09T22:13:16.724Z,-0.49
2023-02-09T22:15:21.214Z,-0.65
2023-02-09T22:17:24.329Z,-0.71
2023-02-09T22:19:27.507Z,-0.70
2023-02-09T22:21:30.737Z,-0.73
2023-02-09T22:23:33.895Z,-0.77
2023-02-09T22:25:37.300Z,-0.77
2023-02-09T22:27:40.354Z,-0.70
2023-02-09T22:29:44.258Z,-0.70
2023-02-09T22:31:48.817Z,-0.68
2023-02-09T22:33:54.283Z,-0.60
2023-02-09T22:35:57.376Z,-0.62
2023-02-09T22:38:00.631Z,-0.71
2023-02-09T22:40:03.705Z,-0.79
2023-02-09T22:42:07.005Z,-0.79
2023-02-09T22:44:13.222Z,-0.76
2023-02-09T22:46:16.584Z,-0.78
2023-02-09T22:48:21.092Z,-0.75
2023-02-09T22:50:24.550Z,-0.77
2023-02-09T22:52:27.917Z,-0.80
2023-02-09T22:54:33.898Z,-0.81
2023-02-09T22:56:37.165Z,-0.84
2023-02-09T22:58:40.402Z,-0.87
2023-02-09T23:00:43.441Z,-0.92
2023-02-09T23:02:46.630Z,-0.97
2023-02-09T23:04:51.160Z,-0.96
2023-02-09T23:06:54.292Z,-0.98
2023-02-09T23:08:59.816Z,-1.00
2023-02-09T23:11:04.184Z,-0.98
2023-02-09T23:13:07.440Z,-1.01
2023-02-09T23:15:11.177Z,-0.97
2023-02-09T23:17:14.382Z,-0.96
2023-02-09T23:19:19.558Z,-1.03
2023-02-09T23:21:26.199Z,-1.03
2023-02-09T23:23:29.291Z,-1.04
2023-02-09T23:25:32.406Z,-1.02
2023-02-09T23:27:35.520Z,-1.03
2023-02-09T23:29:38.621Z,-1.05
2023-02-09T23:31:42.256Z,-1.08
2023-02-09T23:33:45.804Z,-1.05
2023-02-09T23:35:48.971Z,-1.05
2023-02-09T23:37:53.579Z,-1.08
2023-02-09T23:39:56.617Z,-1.12
2023-02-09T23:41:59.667Z,-1.17
2023-02-09T23:44:03.299Z,-1.25
2023-02-09T23:46:07.957Z,-1.33
2023-02-09T23:48:11.057Z,-1.34
2023-02-09T23:50:14.220Z,-1.34
2023-02-09T23:52:17.361Z,-1.34
2023-02-09T23:54:21.853Z,-1.37
2023-02-09T23:56:25.101Z,-1.33
2023-02-09T23:58:30.567Z,-1.32
